Station info - map view · info · telemetry · weather · raw · status · beacons · messages · bulletins · browse · moving · my account
Callsign, ship name or locator: Clear       
It is possible to search using wildcards (*?) after a prefix. Example: OH*
APRS station KE0EIA-9 - show graphs
Map loading...
Comment: 146.520
Mic-E message: En route
Location: 39°18.50' N 108°13.50' W - locator DM59VH33AX - show map - static map
13.5 miles Southwest bearing 223° from Parachute, Garfield County, Colorado, United States [?]
14.1 miles Southwest bearing 229° from Battlement Mesa, Garfield County, Colorado, United States
19.2 miles Northeast bearing 39° from Clifton, Mesa County, Colorado, United States
24.3 miles Northeast bearing 46° from Grand Junction, Mesa County, Colorado, United States
Last position: 2019-12-11 20:55:39 EST (2d 19h36m ago)
2019-12-11 18:55:39 MST local time at Parachute, United States [?]
Altitude: 4885 ft
Position ambiguous: Precision reduced at transmitter by 2 digits, position resolution approximately 1.2 miles.
Course: 200°
Speed: 73 MPH
Device: Yaesu: FTM-400DR (rig)
Last path: KE0EIA-9>SY1XZZ via GRAND*,WIDE1*,WIDE2-1,qAR,K7YI-4 (good)
Positions stored: 1338
Packet rate: 170 seconds between packets on average during 8335 seconds.
Stations near current position of KE0EIA-9 - show more
callsign distance last heard - EST      callsign distance last heard - EST
W0C/RP10714.1 miles 209°2019-12-01 12:26:23 GRAND15.1 miles 180°2019-12-14 16:26:26
145.355-c15.1 miles 180°2019-12-14 16:22:55 KB0SW-517.2 miles 100°2019-12-07 15:11:01
N9EGT-517.4 miles 160°2019-12-07 18:44:55 N9EGT19.5 miles 155°2019-11-17 15:41:50
KC0MJY20.9 miles 224°2019-11-16 17:39:05 ANVIL21.2 miles 42°2019-12-14 16:31:43
147.150+c21.2 miles 42°2019-12-14 16:25:37 KE0VKN-721.3 miles 231°2019-12-12 14:26:16
KE0VKN21.3 miles 231°2019-12-05 13:34:33 KE0VKN-921.3 miles 231°2019-12-12 07:50:13
EW892121.5 miles 225°2019-12-14 16:31:15 KE0BPD-N21.7 miles 225°2019-12-14 16:17:39
AB0TJ21.7 miles 219°2019-12-09 12:10:50 N4BRB21.7 miles 219°2019-12-04 22:43:40
KB0YNA-1021.7 miles 220°2019-12-08 10:48:12 KB0YNA-521.8 miles 220°2019-12-14 16:31:32
N4BRB-921.9 miles 219°2019-12-07 16:53:34 K0GJT22.0 miles 234°2019-12-10 16:37:45
Stations which heard KE0EIA-9 directly on radio –
callsign pkts first heard - EST last heard longest (tx => rx) longest at - EST
BLUEMT 3 2019-12-11 19:07:40 2019-12-11 19:56:23 DN60EI > DN50KI 78.3 miles 271° 2019-12-11 19:07:40
WERNER 3 2019-12-11 18:23:48 2019-12-11 19:05:32 DN60EI > DN60PK 47.5 miles 81° 2019-12-11 19:05:32
CEDAR 38 2019-12-11 18:08:39 2019-12-11 19:16:53 DN60CH > DN60EN 21.2 miles 27° 2019-12-11 19:16:53
SUNLGT 10 2019-12-11 20:12:23 2019-12-11 20:43:31 DM59XK > DM69HK 35.6 miles 94° 2019-12-11 20:43:31
GRAND 6 2019-12-11 20:45:31 2019-12-11 20:55:39 DM59XK > DM59VC 24.5 miles 199° 2019-12-11 20:45:31
N7ZEF-6 22 2019-12-11 15:18:31 2019-12-11 17:17:41 DN62NN > DN61IV 51.2 miles 204° 2019-12-11 15:18:31
W7PG-12 12 2019-12-11 09:57:15 2019-12-11 11:01:13 DN76CI > DN75AO 51.7 miles 189° 2019-12-11 09:57:15
NE7WY-8 12 2019-12-11 11:25:13 2019-12-11 12:30:17 DN74FH > DN74CQ 30.6 miles 338° 2019-12-11 12:30:17
ANVIL 2 2019-12-11 20:27:24 2019-12-11 20:39:32 DM69CN > DM69AM 9.8 miles 260° 2019-12-11 20:27:24
K0ND-6 7 2019-12-11 07:21:57 2019-12-11 07:54:36 DN77XW > DN87NM 61.5 miles 120° 2019-12-11 07:31:09
W7QQA-2 8 2019-12-11 12:04:55 2019-12-11 13:44:49 DN73CO > DN64PI 70.0 miles 321° 2019-12-11 13:20:49
KG0AL 6 2019-12-11 09:47:28 2019-12-11 09:55:10 DN76CJ > DN76BJ 2.7 miles 329° 2019-12-11 09:55:10
MAGMTN 9 2019-12-11 19:03:33 2019-12-11 20:02:24 DM69AU > DN60AE 24.5 miles 3° 2019-12-11 20:02:24
W7REA 11 2019-12-11 12:06:55 2019-12-11 12:32:08 DN74GJ > DN74GG 7.1 miles 183° 2019-12-11 12:06:55
KC7OZU-5 8 2019-12-11 16:16:31 2019-12-11 17:05:37 DN61ER > DN61JS 21.8 miles 85° 2019-12-11 17:05:37
W7BEQ-5 1 2019-12-11 14:07:11 2019-12-11 14:07:11 DN63UE > DN64JD 81.4 miles 327° 2019-12-11 14:07:11
W7PND-3 28 2019-12-11 12:34:50 2019-12-11 14:17:53 DN74FG > DN63MV 75.1 miles 249° 2019-12-11 12:34:50
N7JJY-6 2 2019-12-11 13:22:50 2019-12-11 13:24:50 DN73BN > DN72QU 81.3 miles 128° 2019-12-11 13:24:50
KC7OZU-6 10 2019-12-11 14:29:53 2019-12-11 16:51:32 DN61IS > DN62QF 47.3 miles 46° 2019-12-11 16:51:32
N7ZEF-3 11 2019-12-11 16:23:30 2019-12-11 16:50:31 DN61IS > DN61KS 9.0 miles 88° 2019-12-11 16:50:31
WY7MAP-1 1 2019-12-11 13:08:52 2019-12-11 13:08:52 DN73CS > DN73GS 15.5 miles 95° 2019-12-11 13:08:52

Only position packets which were originated by the station are shown here. The range statistics show some extra long hops, because some digipeaters do not correctly add themselves to the digipeater path. Please check the raw packets.
About this site
This page shows real-time information collected from the Automatic Position Reporting System Internet network (APRS-IS). APRS is used by amateur (ham) radio operators to transmit real-time position information, weather data, telemetry and messages over the radio. A vehicle equipped with a GPS receiver, a VHF transmitter or HF transceiver and a small computer device called a tracker transmits it's location, speed and course in a small data packet, which is then received by a nearby iGate receiving site which forwards the packet on the Internet. Systems connected to the Internet can send information on the APRS-IS without a radio transmitter, or collect and display information transmitted anywhere in the world.
User guide · FAQ · Blog · Discussion group · Linking to aprs.fi · AIS sites · Service status · Database statistics · Advertising on aprs.fi · Technical details · API · Change log · Planned changes · Credits and thanks · Terms Of Service · iPhone/iPad APRS